Kyokuho Maru No.15 — JI3715 — position and weather

sailwx.info

Track history (hours):
 
Tides and Currents Weather Stations Pressure Air Temp Water Temp Dewpoint Dewpoint Depression Visibility Wind Speed Wind Dir Waves Ship Positions

Kyokuho Maru No.15

Last reported at 2014-Sep-16 06:33 UTC. Time now 2014-Sep-17 13:40 UTC.
Position N 35°05' E 139°35'.

Length 63 m; draft 3.2 m.

Type: Tanker. MMSI: 431301714.

Date/timePositionNaut miles runAvg speedWind from/ knotsBaromVisibWave heightAir tempDewpointWater temp
2014-Sep-16 06:33N 35°05' E 139°35'1111.4
2014-Sep-16 05:33N 35°12' E 139°46'1111.4
2014-Sep-16 04:33N 35°23' E 139°42'9 9.1
2014-Sep-16 03:33N 35°32' E 139°45'0 0.0
2014-Sep-16 02:33N 35°32' E 139°45'0 0.0
2014-Sep-16 01:33N 35°32' E 139°45'0 0.0
2014-Sep-16 00:33N 35°32' E 139°45'0 0.0
2014-Sep-15 23:33N 35°32' E 139°45'2 2.3
2014-Sep-15 22:33N 35°30' E 139°47'2 1.5
2014-Sep-15 21:23N 35°29' E 139°48'0 0.0
2014-Sep-15 20:33N 35°29' E 139°48'0 0.0
2014-Sep-15 19:33N 35°29' E 139°48'0 0.0
2014-Sep-15 18:33N 35°29' E 139°48'0 0.0
2014-Sep-15 17:34N 35°29' E 139°48'0 0.0
2014-Sep-15 16:33N 35°29' E 139°48'0 0.0
2014-Sep-15 15:33N 35°29' E 139°48'0 0.0
2014-Sep-15 14:33N 35°29' E 139°49'7 6.9
2014-Sep-15 13:34N 35°22' E 139°45'1110.6
2014-Sep-15 12:33N 35°12' E 139°47'  
2014-Sep-12 08:08N 32°32' E 131°42'0 0.0
2014-Sep-12 03:32N 32°32' E 131°42'1211.3
2014-Sep-12 02:31N 32°39' E 131°53'19210.0
2014-Sep-11 07:14N 34°36' E 134°56'5 7.6
2014-Sep-11 06:33N 34°37' E 135°02'9 8.6
2014-Sep-11 05:33N 34°37' E 135°13'5 4.8
2014-Sep-11 04:33N 34°39' E 135°18'0 0.0
2014-Sep-11 03:33N 34°39' E 135°18'0 0.0
2014-Sep-11 02:33N 34°39' E 135°18'0 0.1
2014-Sep-11 01:33N 34°39' E 135°18'0 0.1
2014-Sep-11 00:33N 34°39' E 135°18'0 0.0
2014-Sep-10 23:33N 34°39' E 135°18'0 0.1
2014-Sep-10 22:33N 34°39' E 135°18'0 0.3
2014-Sep-10 21:33N 34°39' E 135°17'9 8.1
2014-Sep-10 20:30N 34°32' E 135°24'1 0.1
2014-Sep-10 07:14N 34°31' E 135°24'5 7.5
2014-Sep-10 06:33N 34°36' E 135°23'5 4.6
2014-Sep-10 05:33N 34°40' E 135°25'0 0.0
2014-Sep-10 03:10N 34°40' E 135°25'0 0.0
2014-Sep-10 01:07N 34°40' E 135°25'4 6.1
2014-Sep-10 00:32N 34°38' E 135°28'1 0.6
2014-Sep-09 23:12N 34°38' E 135°29'5 7.8
2014-Sep-09 22:33N 34°38' E 135°23'1 1.3
2014-Sep-09 21:31N 34°39' E 135°21'0 0.0
2014-Sep-09 20:31N 34°39' E 135°21'0 0.0
2014-Sep-09 19:31N 34°39' E 135°21'0 0.0
2014-Sep-09 18:31N 34°39' E 135°21'0 0.0
2014-Sep-09 17:25N 34°39' E 135°21'0 0.0
2014-Sep-09 16:31N 34°39' E 135°21'0 0.0
2014-Sep-09 15:31N 34°39' E 135°21'0 0.0
2014-Sep-09 14:31N 34°39' E 135°21'0 0.0
2014-Sep-09 13:25N 34°39' E 135°21'0 0.0
2014-Sep-09 12:31N 34°39' E 135°21'1 1.5
2014-Sep-09 11:33N 34°38' E 135°20'1212.4
2014-Sep-09 10:34N 34°35' E 135°05'10 0.2
2014-Sep-07 17:33N 34°35' E 134°53'9 8.9
2014-Sep-07 16:33N 34°36' E 135°04'1211.8
2014-Sep-07 15:33N 34°34' E 135°18'6 0.4
2014-Sep-07 00:26N 34°31' E 135°24'0 0.0
2014-Sep-06 23:09N 34°31' E 135°24'0 0.0
2014-Sep-06 22:33N 34°31' E 135°24'0 0.0
2014-Sep-06 21:33N 34°31' E 135°24'0 0.0
2014-Sep-06 20:33N 34°31' E 135°24'0 0.0
2014-Sep-06 19:33N 34°31' E 135°24'0 0.0
2014-Sep-06 18:33N 34°31' E 135°24'0 0.0
2014-Sep-06 16:22N 34°31' E 135°24'0 0.0
2014-Sep-06 15:21N 34°31' E 135°24'0 0.0
2014-Sep-06 14:28N 34°31' E 135°24'0 0.0
2014-Sep-06 13:20N 34°31' E 135°24'0 0.1
2014-Sep-06 12:31N 34°31' E 135°24'0 0.0
2014-Sep-06 10:13N 34°31' E 135°24'0 0.0
2014-Sep-06 08:32N 34°31' E 135°24'0 0.0
2014-Sep-06 07:26N 34°31' E 135°24'  
Track history (hours):
 
Tides and Currents Weather Stations Pressure Air Temp Water Temp Dewpoint Dewpoint Depression Visibility Wind Speed Wind Dir Waves Ship Positions

Kyokuho Maru No.15

Last reported at 2014-Sep-16 06:33 UTC. Time now 2014-Sep-17 13:40 UTC.
Position N 35°05' E 139°35'.

Length 63 m; draft 3.2 m.

Type: Tanker. MMSI: 431301714.

Date/timePositionNaut miles runAvg speedWind from/ knotsBaromVisibWave heightAir tempDewpointWater temp
2014-Sep-16 06:33N 35°05' E 139°35'1111.4
2014-Sep-16 05:33N 35°12' E 139°46'1111.4
2014-Sep-16 04:33N 35°23' E 139°42'9 9.1
2014-Sep-16 03:33N 35°32' E 139°45'0 0.0
2014-Sep-16 02:33N 35°32' E 139°45'0 0.0
2014-Sep-16 01:33N 35°32' E 139°45'0 0.0
2014-Sep-16 00:33N 35°32' E 139°45'0 0.0
2014-Sep-15 23:33N 35°32' E 139°45'2 2.3
2014-Sep-15 22:33N 35°30' E 139°47'2 1.5
2014-Sep-15 21:23N 35°29' E 139°48'0 0.0
2014-Sep-15 20:33N 35°29' E 139°48'0 0.0
2014-Sep-15 19:33N 35°29' E 139°48'0 0.0
2014-Sep-15 18:33N 35°29' E 139°48'0 0.0
2014-Sep-15 17:34N 35°29' E 139°48'0 0.0
2014-Sep-15 16:33N 35°29' E 139°48'0 0.0
2014-Sep-15 15:33N 35°29' E 139°48'0 0.0
2014-Sep-15 14:33N 35°29' E 139°49'7 6.9
2014-Sep-15 13:34N 35°22' E 139°45'1110.6
2014-Sep-15 12:33N 35°12' E 139°47'  
2014-Sep-12 08:08N 32°32' E 131°42'0 0.0
2014-Sep-12 03:32N 32°32' E 131°42'1211.3
2014-Sep-12 02:31N 32°39' E 131°53'19210.0
2014-Sep-11 07:14N 34°36' E 134°56'5 7.6
2014-Sep-11 06:33N 34°37' E 135°02'9 8.6
2014-Sep-11 05:33N 34°37' E 135°13'5 4.8
2014-Sep-11 04:33N 34°39' E 135°18'0 0.0
2014-Sep-11 03:33N 34°39' E 135°18'0 0.0
2014-Sep-11 02:33N 34°39' E 135°18'0 0.1
2014-Sep-11 01:33N 34°39' E 135°18'0 0.1
2014-Sep-11 00:33N 34°39' E 135°18'0 0.0
2014-Sep-10 23:33N 34°39' E 135°18'0 0.1
2014-Sep-10 22:33N 34°39' E 135°18'0 0.3
2014-Sep-10 21:33N 34°39' E 135°17'9 8.1
2014-Sep-10 20:30N 34°32' E 135°24'1 0.1
2014-Sep-10 07:14N 34°31' E 135°24'5 7.5
2014-Sep-10 06:33N 34°36' E 135°23'5 4.6
2014-Sep-10 05:33N 34°40' E 135°25'0 0.0
2014-Sep-10 03:10N 34°40' E 135°25'0 0.0
2014-Sep-10 01:07N 34°40' E 135°25'4 6.1
2014-Sep-10 00:32N 34°38' E 135°28'1 0.6
2014-Sep-09 23:12N 34°38' E 135°29'5 7.8
2014-Sep-09 22:33N 34°38' E 135°23'1 1.3
2014-Sep-09 21:31N 34°39' E 135°21'0 0.0
2014-Sep-09 20:31N 34°39' E 135°21'0 0.0
2014-Sep-09 19:31N 34°39' E 135°21'0 0.0
2014-Sep-09 18:31N 34°39' E 135°21'0 0.0
2014-Sep-09 17:25N 34°39' E 135°21'0 0.0
2014-Sep-09 16:31N 34°39' E 135°21'0 0.0
2014-Sep-09 15:31N 34°39' E 135°21'0 0.0
2014-Sep-09 14:31N 34°39' E 135°21'0 0.0
2014-Sep-09 13:25N 34°39' E 135°21'0 0.0
2014-Sep-09 12:31N 34°39' E 135°21'1 1.5
2014-Sep-09 11:33N 34°38' E 135°20'1212.4
2014-Sep-09 10:34N 34°35' E 135°05'10 0.2
2014-Sep-07 17:33N 34°35' E 134°53'9 8.9
2014-Sep-07 16:33N 34°36' E 135°04'1211.8
2014-Sep-07 15:33N 34°34' E 135°18'6 0.4
2014-Sep-07 00:26N 34°31' E 135°24'0 0.0
2014-Sep-06 23:09N 34°31' E 135°24'0 0.0
2014-Sep-06 22:33N 34°31' E 135°24'0 0.0
2014-Sep-06 21:33N 34°31' E 135°24'0 0.0
2014-Sep-06 20:33N 34°31' E 135°24'0 0.0
2014-Sep-06 19:33N 34°31' E 135°24'0 0.0
2014-Sep-06 18:33N 34°31' E 135°24'0 0.0
2014-Sep-06 16:22N 34°31' E 135°24'0 0.0
2014-Sep-06 15:21N 34°31' E 135°24'0 0.0
2014-Sep-06 14:28N 34°31' E 135°24'0 0.0
2014-Sep-06 13:20N 34°31' E 135°24'0 0.1
2014-Sep-06 12:31N 34°31' E 135°24'0 0.0
2014-Sep-06 10:13N 34°31' E 135°24'0 0.0
2014-Sep-06 08:32N 34°31' E 135°24'0 0.0
2014-Sep-06 07:26N 34°31' E 135°24'  

Dump ship's entire track history